Time;durP1;ratioP1;P1;durP2;ratioP2;P2;SDS_P1;SDS_P2;PMS_P1;PMS_P2;Temp;Humidity;BMP_temperature;BMP_pressure;BME280_temperature;BME280_humidity;BME280_pressure;Samples;Min_cycle;Max_cycle;Signal;HPM_P1;HPM_P2
2022/06/06 00:00:44;;;;;;;;;;;17.00;99.90;;;;;;5089712;28;20021;-80
2022/06/06 00:03:11;;;;;;;;;;;17.00;99.90;;;;;;5093076;28;19930;-80
2022/06/06 00:05:41;;;;;;;;;;;17.00;99.90;;;;;;5067730;28;19928;-80
2022/06/06 00:08:08;;;;;;;;;;;17.00;99.90;;;;;;5088105;28;19929;-80
2022/06/06 00:10:36;;;;;;;;;;;16.90;99.90;;;;;;5066475;28;19923;-80
2022/06/06 00:13:03;;;;;;;;;;;16.90;99.90;;;;;;5088929;28;20146;-80
2022/06/06 00:15:30;;;;;;;;;;;16.90;99.90;;;;;;5084217;28;19954;-80
2022/06/06 00:17:57;;;;;;;;;;;16.90;99.90;;;;;;5090973;28;19932;-80
2022/06/06 00:20:24;;;;;;;;;;;16.90;99.90;;;;;;5076574;28;19977;-80
2022/06/06 00:22:51;;;;;;;;;;;16.90;99.90;;;;;;5088301;28;20408;-80
2022/06/06 00:25:18;;;;;;;;;;;16.80;99.90;;;;;;5091781;28;20035;-80
2022/06/06 00:27:46;;;;;;;;;;;16.80;99.90;;;;;;5091317;28;19924;-80
2022/06/06 00:30:13;;;;;;;;;;;16.80;99.90;;;;;;5077495;28;20409;-80
2022/06/06 00:35:25;;;;;;;;;;;16.80;99.90;;;;;;5074545;28;19927;-80
2022/06/06 00:37:51;;;;;;;;;;;16.80;99.90;;;;;;5083020;28;19925;-80
2022/06/06 00:40:20;;;;;;;;;;;16.80;99.90;;;;;;5082449;28;19968;-80
2022/06/06 00:42:49;;;;;;;;;;;16.70;99.90;;;;;;5086842;28;19951;-80
2022/06/06 00:45:33;;;;;;;;;;;16.70;99.90;;;;;;5082063;28;20001;-80
2022/06/06 00:48:15;;;;;;;;;;;16.70;99.90;;;;;;5086857;28;19928;-80
2022/06/06 00:50:48;;;;;;;;;;;16.70;99.90;;;;;;5084952;28;19928;-80
2022/06/06 00:53:16;;;;;;;;;;;16.70;99.90;;;;;;5071272;28;19932;-80
2022/06/06 00:55:46;;;;;;;;;;;16.70;99.90;;;;;;5088208;28;20043;-80
2022/06/06 00:58:16;;;;;;;;;;;16.70;99.90;;;;;;5084771;28;19924;-80
2022/06/06 01:00:44;;;;;;;;;;;16.70;99.90;;;;;;5086502;28;20363;-80
2022/06/06 01:03:13;;;;;;;;;;;16.70;99.90;;;;;;5086355;28;19932;-80
2022/06/06 01:05:40;;;;;;;;;;;16.60;99.90;;;;;;5068501;28;19963;-80
2022/06/06 01:08:07;;;;;;;;;;;16.60;99.90;;;;;;5068571;28;20297;-80
2022/06/06 01:10:35;;;;;;;;;;;16.60;99.90;;;;;;5069671;28;20254;-81
2022/06/06 01:13:03;;;;;;;;;;;16.60;99.90;;;;;;5094721;28;19928;-82
2022/06/06 01:15:36;;;;;;;;;;;16.60;99.90;;;;;;5092072;28;19946;-81
2022/06/06 01:18:08;;;;;;;;;;;16.50;99.90;;;;;;5068056;28;20027;-82
2022/06/06 01:20:49;;;;;;;;;;;16.50;99.90;;;;;;5070708;28;19924;-82
2022/06/06 01:23:42;;;;;;;;;;;16.50;99.90;;;;;;5076236;28;20423;-82
2022/06/06 01:26:21;;;;;;;;;;;16.50;99.90;;;;;;5081773;28;19929;-80
2022/06/06 01:28:52;;;;;;;;;;;16.50;99.90;;;;;;5084718;28;20009;-80
2022/06/06 01:31:23;;;;;;;;;;;16.50;99.90;;;;;;5081380;28;19928;-80
2022/06/06 01:33:52;;;;;;;;;;;16.50;99.90;;;;;;5069344;28;19924;-80
2022/06/06 01:36:19;;;;;;;;;;;16.50;99.90;;;;;;5066688;28;20487;-80
2022/06/06 01:38:46;;;;;;;;;;;16.40;99.90;;;;;;5085141;28;20348;-82
2022/06/06 01:41:15;;;;;;;;;;;16.40;99.90;;;;;;5080164;28;19928;-81
2022/06/06 01:43:42;;;;;;;;;;;;;;;;;;5070374;28;20415;-82
2022/06/06 01:46:13;;;;;;;;;;;16.40;99.90;;;;;;5088911;28;19934;-81
2022/06/06 01:48:41;;;;;;;;;;;16.40;99.90;;;;;;5086264;28;19931;-80
2022/06/06 01:51:10;;;;;;;;;;;16.40;99.90;;;;;;5088724;28;20018;-80
2022/06/06 01:53:37;;;;;;;;;;;16.40;99.90;;;;;;5072313;28;20014;-80
2022/06/06 01:56:05;;;;;;;;;;;16.40;99.90;;;;;;5068725;28;19924;-80
2022/06/06 01:58:32;;;;;;;;;;;16.30;99.90;;;;;;5087547;28;19924;-80
2022/06/06 02:00:59;;;;;;;;;;;16.30;99.90;;;;;;5085427;28;19932;-80
2022/06/06 02:03:28;;;;;;;;;;;16.30;99.90;;;;;;5089067;28;19924;-80
2022/06/06 02:05:54;;;;;;;;;;;16.30;99.90;;;;;;5070372;28;20294;-80
2022/06/06 02:08:21;;;;;;;;;;;16.20;99.90;;;;;;5085788;28;19924;-80
2022/06/06 02:10:48;;;;;;;;;;;16.20;99.90;;;;;;5083536;28;19983;-80
2022/06/06 02:13:15;;;;;;;;;;;16.30;99.90;;;;;;5088772;28;19930;-80
2022/06/06 02:15:43;;;;;;;;;;;16.20;99.90;;;;;;5088388;28;19978;-80
2022/06/06 02:18:10;;;;;;;;;;;16.20;99.90;;;;;;5084443;28;19932;-80
2022/06/06 02:20:39;;;;;;;;;;;16.20;99.90;;;;;;5066415;28;19928;-80
2022/06/06 02:23:06;;;;;;;;;;;16.20;99.90;;;;;;5060944;28;20343;-80
2022/06/06 02:25:33;;;;;;;;;;;16.20;99.90;;;;;;5083497;28;20374;-80
2022/06/06 02:28:01;;;;;;;;;;;16.10;99.90;;;;;;5091061;28;19925;-80
2022/06/06 02:30:30;;;;;;;;;;;16.10;99.90;;;;;;5081713;28;19935;-81
2022/06/06 02:32:57;;;;;;;;;;;16.10;99.90;;;;;;5075679;28;19932;-80
2022/06/06 02:35:25;;;;;;;;;;;16.10;99.90;;;;;;5083975;28;19978;-80
2022/06/06 02:37:54;;;;;;;;;;;16.10;99.90;;;;;;5089363;28;20301;-80
2022/06/06 02:40:21;;;;;;;;;;;16.10;99.90;;;;;;5087701;28;19982;-80
2022/06/06 02:42:49;;;;;;;;;;;16.00;99.90;;;;;;5089509;28;20340;-80
2022/06/06 02:45:16;;;;;;;;;;;16.10;99.90;;;;;;5088554;28;19931;-80
2022/06/06 02:47:44;;;;;;;;;;;16.00;99.90;;;;;;5070936;28;19924;-80
2022/06/06 02:50:16;;;;;;;;;;;16.00;99.90;;;;;;5070565;28;19924;-80
2022/06/06 02:52:43;;;;;;;;;;;16.00;99.90;;;;;;5069087;28;20370;-80
2022/06/06 02:55:13;;;;;;;;;;;16.00;99.90;;;;;;5089305;28;19928;-80
2022/06/06 02:57:40;;;;;;;;;;;16.00;99.90;;;;;;5090530;28;19927;-80
2022/06/06 03:00:08;;;;;;;;;;;16.00;99.90;;;;;;5091320;28;19931;-80
2022/06/06 03:02:35;;;;;;;;;;;15.90;99.90;;;;;;5073389;28;19928;-80
2022/06/06 03:05:02;;;;;;;;;;;15.90;99.90;;;;;;5090781;28;19932;-80
2022/06/06 03:07:32;;;;;;;;;;;15.90;99.90;;;;;;5089111;28;19932;-80
2022/06/06 03:10:04;;;;;;;;;;;15.90;99.90;;;;;;5075332;28;20159;-80
2022/06/06 03:12:41;;;;;;;;;;;15.90;99.90;;;;;;5089366;28;19931;-80
2022/06/06 03:15:16;;;;;;;;;;;15.90;99.90;;;;;;5085415;28;20349;-80
2022/06/06 03:20:47;;;;;;;;;;;15.90;99.90;;;;;;5089700;28;19930;-80
2022/06/06 03:23:22;;;;;;;;;;;15.80;99.90;;;;;;5093367;28;19985;-80
2022/06/06 03:25:52;;;;;;;;;;;15.80;99.90;;;;;;5087914;28;20393;-80
2022/06/06 03:28:26;;;;;;;;;;;15.80;99.90;;;;;;5121704;22;20020;-79
2022/06/06 03:31:00;;;;;;;;;;;15.80;99.90;;;;;;5070433;28;19935;-79
2022/06/06 03:33:29;;;;;;;;;;;15.80;99.90;;;;;;5087675;28;19977;-79
2022/06/06 03:36:03;;;;;;;;;;;15.80;99.90;;;;;;5097724;27;19959;-78
2022/06/06 03:38:35;;;;;;;;;;;15.80;99.90;;;;;;5077106;28;19947;-78
2022/06/06 03:41:06;;;;;;;;;;;15.70;99.90;;;;;;5085406;28;20230;-79
2022/06/06 03:43:38;;;;;;;;;;;15.70;99.90;;;;;;5108922;28;19932;-79
2022/06/06 03:46:13;;;;;;;;;;;15.70;99.90;;;;;;5083490;28;19931;-79
2022/06/06 03:48:44;;;;;;;;;;;15.70;99.90;;;;;;5087275;27;19992;-79
2022/06/06 03:51:20;;;;;;;;;;;15.70;99.90;;;;;;5103745;27;20279;-79
2022/06/06 03:53:51;;;;;;;;;;;15.70;99.90;;;;;;5100999;27;20420;-78
2022/06/06 03:56:28;;;;;;;;;;;15.70;99.90;;;;;;5103937;27;19931;-79
2022/06/06 03:58:57;;;;;;;;;;;15.60;99.90;;;;;;5109055;27;19924;-78
2022/06/06 04:01:25;;;;;;;;;;;15.60;99.90;;;;;;5109637;27;19977;-79
2022/06/06 04:03:53;;;;;;;;;;;15.70;99.90;;;;;;5102933;27;19924;-79
2022/06/06 04:06:20;;;;;;;;;;;15.60;99.90;;;;;;5103426;27;19928;-79
2022/06/06 04:08:47;;;;;;;;;;;15.60;99.90;;;;;;5102998;28;19931;-78
2022/06/06 04:11:25;;;;;;;;;;;15.60;99.90;;;;;;5100758;27;20343;-79
2022/06/06 04:13:57;;;;;;;;;;;15.60;99.90;;;;;;5105334;28;19933;-79
2022/06/06 04:16:33;;;;;;;;;;;15.60;99.90;;;;;;5099844;28;19924;-78
2022/06/06 04:19:05;;;;;;;;;;;15.60;99.90;;;;;;5109167;27;20001;-78
2022/06/06 04:21:35;;;;;;;;;;;15.50;99.90;;;;;;5094981;28;20455;-79
2022/06/06 04:24:12;;;;;;;;;;;15.50;99.90;;;;;;5110436;27;19924;-78
2022/06/06 04:26:43;;;;;;;;;;;15.50;99.90;;;;;;5080366;27;19985;-79
2022/06/06 04:29:16;;;;;;;;;;;15.50;99.90;;;;;;5101401;27;20282;-79
2022/06/06 04:31:49;;;;;;;;;;;15.50;99.90;;;;;;5099471;27;19945;-79
2022/06/06 04:34:17;;;;;;;;;;;15.50;99.90;;;;;;5085881;28;19932;-79
2022/06/06 04:36:47;;;;;;;;;;;15.40;99.90;;;;;;5097835;27;19924;-79
2022/06/06 04:39:17;;;;;;;;;;;15.40;99.90;;;;;;5109324;27;19927;-78
2022/06/06 04:41:46;;;;;;;;;;;15.30;99.90;;;;;;5108056;27;19934;-79
2022/06/06 04:44:16;;;;;;;;;;;15.20;99.90;;;;;;5077032;27;19924;-79
2022/06/06 04:46:48;;;;;;;;;;;15.10;99.90;;;;;;5100421;27;19931;-79
2022/06/06 04:49:15;;;;;;;;;;;15.00;99.90;;;;;;5101839;27;19932;-79
2022/06/06 04:51:43;;;;;;;;;;;15.00;99.90;;;;;;5089330;28;19923;-80
2022/06/06 04:54:14;;;;;;;;;;;15.00;99.90;;;;;;5085745;28;19967;-78
2022/06/06 04:56:41;;;;;;;;;;;15.00;99.90;;;;;;5084352;28;19924;-78
2022/06/06 04:59:10;;;;;;;;;;;15.00;99.90;;;;;;5085130;28;19923;-79
2022/06/06 05:01:38;;;;;;;;;;;15.00;99.90;;;;;;5101756;27;20401;-79
2022/06/06 05:04:06;;;;;;;;;;;15.00;99.90;;;;;;5098313;28;20485;-78
2022/06/06 05:06:40;;;;;;;;;;;15.00;99.90;;;;;;5085340;28;19934;-78
2022/06/06 05:11:38;;;;;;;;;;;15.10;99.90;;;;;;5100240;22;20448;-79
2022/06/06 05:14:23;;;;;;;;;;;15.10;99.90;;;;;;5128146;27;19927;-79
2022/06/06 05:16:56;;;;;;;;;;;15.10;99.90;;;;;;5101623;28;19924;-79
2022/06/06 05:19:32;;;;;;;;;;;15.20;99.90;;;;;;5101922;28;19930;-78
2022/06/06 05:22:04;;;;;;;;;;;15.20;99.90;;;;;;5102257;28;20422;-79
2022/06/06 05:24:36;;;;;;;;;;;15.20;99.90;;;;;;5102471;28;19930;-79
2022/06/06 05:27:14;;;;;;;;;;;15.20;99.90;;;;;;5103940;28;19939;-79
2022/06/06 05:30:02;;;;;;;;;;;15.20;99.90;;;;;;5099285;28;19931;-79
2022/06/06 05:32:35;;;;;;;;;;;15.30;99.90;;;;;;5083374;28;19928;-79
2022/06/06 05:35:08;;;;;;;;;;;15.30;99.90;;;;;;5106227;28;19985;-79
2022/06/06 05:37:39;;;;;;;;;;;15.30;99.90;;;;;;5101321;28;20575;-79
2022/06/06 05:40:13;;;;;;;;;;;15.40;99.90;;;;;;5104267;28;19931;-79
2022/06/06 05:42:52;;;;;;;;;;;15.40;99.90;;;;;;5098514;28;19928;-79
2022/06/06 05:45:23;;;;;;;;;;;15.40;99.90;;;;;;5102257;28;20081;-79
2022/06/06 05:47:54;;;;;;;;;;;15.40;99.90;;;;;;5097910;28;19927;-79
2022/06/06 05:50:35;;;;;;;;;;;15.40;99.90;;;;;;5100510;28;19924;-79
2022/06/06 05:53:14;;;;;;;;;;;15.50;99.90;;;;;;5098687;28;19932;-79
2022/06/06 05:55:49;;;;;;;;;;;15.50;99.90;;;;;;5104358;28;19975;-79
2022/06/06 05:58:23;;;;;;;;;;;15.50;99.90;;;;;;5101919;28;19928;-79
2022/06/06 06:00:56;;;;;;;;;;;15.50;99.90;;;;;;5094062;28;19928;-79
2022/06/06 06:03:45;;;;;;;;;;;15.60;99.90;;;;;;5086515;28;19927;-79
2022/06/06 06:06:17;;;;;;;;;;;15.60;99.90;;;;;;5088419;28;19969;-79
2022/06/06 06:09:03;;;;;;;;;;;15.60;99.90;;;;;;5104998;28;19924;-79
2022/06/06 06:11:37;;;;;;;;;;;15.60;99.90;;;;;;5083550;28;20410;-80
2022/06/06 06:14:11;;;;;;;;;;;15.60;99.90;;;;;;5090560;28;19923;-79
2022/06/06 06:16:42;;;;;;;;;;;15.60;99.90;;;;;;5094339;28;19931;-79
2022/06/06 06:19:11;;;;;;;;;;;15.70;99.90;;;;;;5099721;28;19932;-79
2022/06/06 06:21:40;;;;;;;;;;;15.70;99.90;;;;;;5107757;28;19924;-79
2022/06/06 06:24:09;;;;;;;;;;;15.70;99.90;;;;;;5101315;28;20039;-80
2022/06/06 06:26:37;;;;;;;;;;;15.70;99.90;;;;;;5091285;28;19928;-79
2022/06/06 06:29:05;;;;;;;;;;;15.70;99.90;;;;;;5089211;28;20343;-79
2022/06/06 06:31:46;;;;;;;;;;;15.70;99.90;;;;;;5104563;28;19935;-79
2022/06/06 06:34:19;;;;;;;;;;;15.70;99.90;;;;;;5106331;28;19924;-79
2022/06/06 06:36:47;;;;;;;;;;;15.80;99.90;;;;;;5091484;28;19938;-80
2022/06/06 06:39:26;;;;;;;;;;;15.70;99.90;;;;;;5101188;28;19930;-79
2022/06/06 06:42:00;;;;;;;;;;;15.80;99.90;;;;;;5087299;28;19927;-79
2022/06/06 06:44:32;;;;;;;;;;;15.80;99.90;;;;;;5090451;28;20305;-79
2022/06/06 06:47:04;;;;;;;;;;;15.80;99.90;;;;;;5091078;28;19930;-79
2022/06/06 06:49:36;;;;;;;;;;;15.80;99.90;;;;;;5104504;28;20377;-79
2022/06/06 06:52:08;;;;;;;;;;;15.80;99.90;;;;;;5104324;28;20589;-79
2022/06/06 06:54:42;;;;;;;;;;;15.80;99.90;;;;;;5102301;28;19924;-79
2022/06/06 06:57:15;;;;;;;;;;;15.80;99.90;;;;;;5094879;28;20402;-79
2022/06/06 06:59:47;;;;;;;;;;;15.90;99.90;;;;;;5107013;28;19928;-80
2022/06/06 07:10:51;;;;;;;;;;;16.00;99.90;;;;;;5107083;28;19951;-79
2022/06/06 07:13:23;;;;;;;;;;;16.00;99.90;;;;;;5104609;28;19924;-79
2022/06/06 07:15:53;;;;;;;;;;;16.00;99.90;;;;;;5095327;28;20301;-79
2022/06/06 07:18:22;;;;;;;;;;;16.10;99.90;;;;;;5108100;28;19924;-79
2022/06/06 07:20:49;;;;;;;;;;;16.10;99.90;;;;;;5103714;28;19931;-79
2022/06/06 07:23:17;;;;;;;;;;;16.10;99.90;;;;;;5103707;28;20413;-78
2022/06/06 07:25:45;;;;;;;;;;;16.10;99.90;;;;;;5098926;28;19928;-80
2022/06/06 07:28:14;;;;;;;;;;;16.20;99.90;;;;;;5098478;28;19924;-79
2022/06/06 07:30:42;;;;;;;;;;;16.20;99.90;;;;;;5086107;28;19930;-79
2022/06/06 07:33:20;;;;;;;;;;;16.20;99.90;;;;;;5107137;28;20407;-79
2022/06/06 07:35:53;;;;;;;;;;;16.20;99.90;;;;;;5093370;28;19950;-79
2022/06/06 07:38:25;;;;;;;;;;;16.20;99.90;;;;;;5099557;28;19924;-77
2022/06/06 07:40:59;;;;;;;;;;;16.30;99.90;;;;;;5090970;28;19931;-79
2022/06/06 07:43:41;;;;;;;;;;;16.30;99.90;;;;;;5104050;28;19934;-79
2022/06/06 07:46:17;;;;;;;;;;;16.30;99.90;;;;;;5105085;28;19924;-79
2022/06/06 07:48:51;;;;;;;;;;;16.30;99.90;;;;;;5099881;28;19924;-79
2022/06/06 07:51:21;;;;;;;;;;;16.30;99.90;;;;;;5103754;28;19976;-79
2022/06/06 07:53:52;;;;;;;;;;;16.40;99.90;;;;;;5106520;28;19930;-79
2022/06/06 07:56:21;;;;;;;;;;;16.40;99.90;;;;;;5101466;28;19924;-79
2022/06/06 07:58:55;;;;;;;;;;;16.40;99.90;;;;;;5077232;28;19977;-79
2022/06/06 08:01:27;;;;;;;;;;;16.40;99.90;;;;;;5088459;28;19924;-79
2022/06/06 08:03:59;;;;;;;;;;;16.50;99.90;;;;;;5099402;28;20496;-79
2022/06/06 08:06:37;;;;;;;;;;;16.50;99.90;;;;;;5079585;28;20353;-78
2022/06/06 08:09:15;;;;;;;;;;;16.50;99.90;;;;;;5105797;28;20010;-79
2022/06/06 08:11:50;;;;;;;;;;;16.60;99.90;;;;;;5086390;28;19998;-79
2022/06/06 08:14:21;;;;;;;;;;;16.60;99.90;;;;;;5103799;28;20578;-79
2022/06/06 08:16:55;;;;;;;;;;;16.60;99.90;;;;;;5107135;28;19928;-79
2022/06/06 08:19:43;;;;;;;;;;;16.70;99.90;;;;;;5106876;28;19959;-79
2022/06/06 08:22:10;;;;;;;;;;;16.70;99.90;;;;;;5101412;28;20305;-79
2022/06/06 08:24:39;;;;;;;;;;;16.70;99.90;;;;;;5104993;28;19923;-79
2022/06/06 08:27:07;;;;;;;;;;;16.70;99.90;;;;;;5088115;28;20351;-79
2022/06/06 08:29:36;;;;;;;;;;;16.70;99.90;;;;;;5097345;28;19932;-79
2022/06/06 08:32:05;;;;;;;;;;;16.80;99.90;;;;;;5099111;28;19931;-79
2022/06/06 08:34:33;;;;;;;;;;;16.80;99.90;;;;;;5100308;28;19977;-79
2022/06/06 08:37:08;;;;;;;;;;;16.90;99.90;;;;;;5081840;28;19928;-79
2022/06/06 08:39:39;;;;;;;;;;;16.90;99.90;;;;;;5103137;28;20044;-79
2022/06/06 08:42:13;;;;;;;;;;;16.90;99.90;;;;;;5099759;28;19940;-79
2022/06/06 08:44:51;;;;;;;;;;;16.90;99.90;;;;;;5100520;28;19924;-79
2022/06/06 08:47:28;;;;;;;;;;;16.90;99.90;;;;;;5087214;28;19950;-79
2022/06/06 08:53:27;;;;;;;;;;;17.00;99.90;;;;;;5090672;28;19950;-80
2022/06/06 08:56:07;;;;;;;;;;;17.00;99.90;;;;;;5085251;28;19924;-79
2022/06/06 08:58:42;;;;;;;;;;;17.10;99.90;;;;;;5088634;28;19967;-79
2022/06/06 09:01:14;;;;;;;;;;;17.10;99.90;;;;;;5093119;28;19938;-79
2022/06/06 09:04:10;;;;;;;;;;;17.10;99.90;;;;;;5109328;28;20430;-79
2022/06/06 09:06:52;;;;;;;;;;;17.20;99.90;;;;;;5082373;28;19980;-79
2022/06/06 09:09:34;;;;;;;;;;;17.20;99.90;;;;;;5101971;28;20282;-79
2022/06/06 09:12:17;;;;;;;;;;;17.20;99.90;;;;;;5103989;28;20579;-79
2022/06/06 09:15:12;;;;;;;;;;;17.20;99.90;;;;;;5083037;28;20287;-79
2022/06/06 09:17:58;;;;;;;;;;;17.20;99.90;;;;;;5083994;28;20489;-79
2022/06/06 09:20:47;;;;;;;;;;;17.30;99.90;;;;;;5099332;28;19924;-79
2022/06/06 09:23:26;;;;;;;;;;;17.30;99.90;;;;;;5101413;28;19924;-79
2022/06/06 09:25:59;;;;;;;;;;;17.30;99.90;;;;;;5088888;28;20022;-80
2022/06/06 09:28:43;;;;;;;;;;;17.30;99.90;;;;;;5099718;28;19924;-79
2022/06/06 09:31:22;;;;;;;;;;;17.30;99.90;;;;;;5100939;28;19931;-79
2022/06/06 09:34:07;;;;;;;;;;;17.40;99.90;;;;;;5098943;28;20018;-79
2022/06/06 09:36:46;;;;;;;;;;;17.40;99.90;;;;;;5086783;22;19924;-80
2022/06/06 09:39:22;;;;;;;;;;;17.40;99.90;;;;;;5082351;28;19931;-80
2022/06/06 09:41:54;;;;;;;;;;;17.40;99.90;;;;;;5083087;28;19925;-80
2022/06/06 09:44:23;;;;;;;;;;;17.50;99.90;;;;;;5076093;28;19924;-80
2022/06/06 09:47:08;;;;;;;;;;;17.50;99.90;;;;;;5062429;28;19924;-80
2022/06/06 09:49:56;;;;;;;;;;;17.50;99.90;;;;;;5044199;28;19924;-80
2022/06/06 09:52:42;;;;;;;;;;;17.60;99.90;;;;;;5061160;28;19932;-80
2022/06/06 10:01:14;;;;;;;;;;;17.60;99.90;;;;;;5048170;28;20326;-80
2022/06/06 10:04:02;;;;;;;;;;;17.70;99.90;;;;;;5045732;28;20011;-80
2022/06/06 10:06:37;;;;;;;;;;;17.70;99.90;;;;;;5070769;28;19989;-80
2022/06/06 10:09:28;;;;;;;;;;;17.70;99.90;;;;;;5064356;28;19924;-80
2022/06/06 10:12:04;;;;;;;;;;;17.70;99.90;;;;;;5067507;28;19933;-80
2022/06/06 10:14:40;;;;;;;;;;;17.70;99.90;;;;;;5064627;28;20342;-80
2022/06/06 10:17:22;;;;;;;;;;;17.80;99.90;;;;;;5069339;28;19924;-80
2022/06/06 10:19:55;;;;;;;;;;;17.80;99.90;;;;;;5065606;28;19932;-80
2022/06/06 10:22:28;;;;;;;;;;;17.80;99.90;;;;;;5045390;28;20399;-81
2022/06/06 10:25:12;;;;;;;;;;;17.90;99.90;;;;;;5068823;28;19928;-80
2022/06/06 10:27:48;;;;;;;;;;;17.90;99.90;;;;;;5046648;28;19925;-80
2022/06/06 10:30:19;;;;;;;;;;;17.90;99.90;;;;;;5070044;28;19924;-80
2022/06/06 10:33:04;;;;;;;;;;;17.90;99.90;;;;;;5064622;28;19928;-80
2022/06/06 10:35:38;;;;;;;;;;;17.90;99.90;;;;;;5066348;28;19964;-80
2022/06/06 10:38:14;;;;;;;;;;;18.00;99.90;;;;;;5065436;28;19925;-80
2022/06/06 10:40:46;;;;;;;;;;;18.00;99.90;;;;;;5063445;28;20516;-80
2022/06/06 10:43:40;;;;;;;;;;;18.00;99.90;;;;;;5062829;28;19925;-80
2022/06/06 10:46:14;;;;;;;;;;;18.00;99.90;;;;;;5067206;28;19925;-80
2022/06/06 10:48:56;;;;;;;;;;;18.10;99.90;;;;;;5062104;28;20033;-80
2022/06/06 10:51:43;;;;;;;;;;;18.10;99.90;;;;;;5067090;28;19933;-80
2022/06/06 10:54:20;;;;;;;;;;;18.10;99.90;;;;;;5067228;28;20363;-81
2022/06/06 10:56:57;;;;;;;;;;;18.10;99.90;;;;;;5067491;28;19956;-80
2022/06/06 10:59:42;;;;;;;;;;;18.10;99.90;;;;;;5067905;28;20015;-80
2022/06/06 11:02:30;;;;;;;;;;;18.20;99.90;;;;;;5056381;28;19974;-80
2022/06/06 11:05:14;;;;;;;;;;;18.20;99.90;;;;;;5052960;28;20011;-80
2022/06/06 11:08:02;;;;;;;;;;;18.20;99.90;;;;;;5068379;28;19930;-80
2022/06/06 11:10:47;;;;;;;;;;;18.20;99.90;;;;;;5043211;28;20367;-81
2022/06/06 11:13:32;;;;;;;;;;;18.30;99.90;;;;;;5039522;28;19931;-80
2022/06/06 11:16:17;;;;;;;;;;;18.30;99.90;;;;;;5066095;28;19925;-81
2022/06/06 11:18:59;;;;;;;;;;;18.30;99.90;;;;;;5037548;28;19932;-80
2022/06/06 11:21:34;;;;;;;;;;;18.30;99.90;;;;;;5047615;28;19931;-80
2022/06/06 11:24:07;;;;;;;;;;;18.40;99.90;;;;;;5066224;28;19931;-80
2022/06/06 11:26:42;;;;;;;;;;;18.40;99.90;;;;;;5072000;28;19924;-80
2022/06/06 11:29:25;;;;;;;;;;;18.40;99.90;;;;;;5071078;28;19932;-80
2022/06/06 11:31:54;;;;;;;;;;;18.50;99.90;;;;;;5069530;28;19985;-80
2022/06/06 11:34:39;;;;;;;;;;;18.50;99.90;;;;;;5042069;28;20438;-80
2022/06/06 11:37:16;;;;;;;;;;;18.60;99.90;;;;;;5055521;28;19938;-80
2022/06/06 11:40:01;;;;;;;;;;;18.60;99.90;;;;;;5051925;28;19932;-80
2022/06/06 11:42:38;;;;;;;;;;;18.60;99.90;;;;;;5067123;28;19944;-80
2022/06/06 11:45:18;;;;;;;;;;;18.70;99.90;;;;;;5052040;28;19924;-80
2022/06/06 11:47:53;;;;;;;;;;;18.70;99.90;;;;;;5069201;28;20390;-80
2022/06/06 11:50:42;;;;;;;;;;;18.80;99.90;;;;;;5048073;28;19928;-80
2022/06/06 11:53:27;;;;;;;;;;;18.80;99.90;;;;;;5046224;28;19925;-81
2022/06/06 11:56:03;;;;;;;;;;;18.90;99.90;;;;;;5055513;28;20252;-80
2022/06/06 11:58:50;;;;;;;;;;;18.90;99.90;;;;;;5066526;28;20023;-80
2022/06/06 12:01:30;;;;;;;;;;;18.90;99.90;;;;;;5065379;28;19936;-80
2022/06/06 12:04:14;;;;;;;;;;;19.00;99.90;;;;;;5069271;28;19928;-80
2022/06/06 12:06:56;;;;;;;;;;;19.00;99.90;;;;;;5065772;28;19932;-80
2022/06/06 12:09:30;;;;;;;;;;;19.10;99.90;;;;;;5053198;28;19958;-80
2022/06/06 12:12:27;;;;;;;;;;;19.10;99.90;;;;;;5070724;28;19979;-80
2022/06/06 12:15:02;;;;;;;;;;;19.10;99.90;;;;;;5070598;28;20357;-80
2022/06/06 12:17:38;;;;;;;;;;;19.20;99.90;;;;;;5072469;28;20688;-80
2022/06/06 12:20:22;;;;;;;;;;;19.20;99.90;;;;;;5069802;28;19928;-81
2022/06/06 12:22:53;;;;;;;;;;;19.20;99.90;;;;;;5068547;28;19970;-81
2022/06/06 12:25:39;;;;;;;;;;;19.30;99.90;;;;;;5050694;28;19925;-80
2022/06/06 12:28:20;;;;;;;;;;;19.30;99.90;;;;;;5069577;28;19925;-80
2022/06/06 12:30:58;;;;;;;;;;;19.30;99.90;;;;;;5059923;28;19970;-80
2022/06/06 12:33:28;;;;;;;;;;;19.40;99.90;;;;;;5070142;28;19939;-80
2022/06/06 12:35:58;;;;;;;;;;;19.40;99.90;;;;;;5059768;28;19925;-80
2022/06/06 12:38:42;;;;;;;;;;;19.40;99.90;;;;;;5065145;28;20015;-80
2022/06/06 12:41:20;;;;;;;;;;;19.50;99.90;;;;;;5058583;28;19988;-80
2022/06/06 12:43:55;;;;;;;;;;;19.50;99.90;;;;;;5065209;28;19931;-81
2022/06/06 12:46:33;;;;;;;;;;;19.50;99.90;;;;;;5052411;28;20501;-80
2022/06/06 12:49:11;;;;;;;;;;;19.60;99.90;;;;;;5067674;28;19935;-81
2022/06/06 12:51:46;;;;;;;;;;;19.60;99.90;;;;;;5064053;28;19932;-80
2022/06/06 12:54:30;;;;;;;;;;;19.60;99.90;;;;;;5069860;28;20019;-80
2022/06/06 12:56:59;;;;;;;;;;;19.70;99.90;;;;;;5070285;28;19978;-79
2022/06/06 12:59:33;;;;;;;;;;;19.70;99.90;;;;;;5067941;28;19928;-80
2022/06/06 13:02:05;;;;;;;;;;;19.70;99.90;;;;;;5066187;28;19925;-80
2022/06/06 13:04:41;;;;;;;;;;;19.70;99.90;;;;;;5069630;28;20337;-79
2022/06/06 13:07:20;;;;;;;;;;;19.80;99.90;;;;;;5049666;28;21085;-79
2022/06/06 13:09:55;;;;;;;;;;;19.80;99.90;;;;;;5061478;28;19932;-79
2022/06/06 13:12:29;;;;;;;;;;;19.80;99.90;;;;;;5068472;28;20010;-79
2022/06/06 13:15:10;;;;;;;;;;;19.80;99.90;;;;;;5068802;28;19967;-79
2022/06/06 13:17:48;;;;;;;;;;;19.90;99.90;;;;;;5066679;28;19924;-79
2022/06/06 13:20:23;;;;;;;;;;;19.90;99.90;;;;;;5066992;28;19925;-79
2022/06/06 13:23:01;;;;;;;;;;;19.90;99.90;;;;;;5066082;28;20401;-79
2022/06/06 13:25:32;;;;;;;;;;;20.00;99.90;;;;;;5068673;28;20410;-79
2022/06/06 13:28:00;;;;;;;;;;;20.00;99.90;;;;;;5064401;28;19931;-79
2022/06/06 13:30:29;;;;;;;;;;;20.10;99.90;;;;;;5067119;28;20294;-79
2022/06/06 13:33:04;;;;;;;;;;;20.10;99.90;;;;;;5068954;28;19986;-79
2022/06/06 13:35:38;;;;;;;;;;;20.10;99.90;;;;;;5065465;28;19980;-79
2022/06/06 13:38:11;;;;;;;;;;;20.20;99.90;;;;;;5048490;28;19924;-78
2022/06/06 13:40:42;;;;;;;;;;;20.20;99.90;;;;;;5052153;28;19939;-79
2022/06/06 13:43:28;;;;;;;;;;;20.20;99.90;;;;;;5066996;28;19932;-79
2022/06/06 13:46:01;;;;;;;;;;;20.30;99.90;;;;;;5046963;28;19951;-79
2022/06/06 13:48:41;;;;;;;;;;;20.30;99.90;;;;;;5067771;28;19959;-79
2022/06/06 13:51:17;;;;;;;;;;;20.30;99.90;;;;;;5062291;28;19928;-79
2022/06/06 13:53:52;;;;;;;;;;;20.30;99.90;;;;;;5070934;28;19933;-79
2022/06/06 13:56:37;;;;;;;;;;;20.40;99.90;;;;;;5067252;28;19933;-78
2022/06/06 13:59:10;;;;;;;;;;;20.40;99.90;;;;;;5051817;28;19951;-79
2022/06/06 14:01:43;;;;;;;;;;;20.40;99.90;;;;;;5064028;28;19928;-79
2022/06/06 14:04:38;;;;;;;;;;;20.50;99.90;;;;;;5065557;28;19932;-79
2022/06/06 14:07:20;;;;;;;;;;;20.50;99.90;;;;;;5069592;28;19979;-79
2022/06/06 14:09:47;;;;;;;;;;;20.50;99.90;;;;;;5048571;28;19925;-79
2022/06/06 14:12:20;;;;;;;;;;;20.60;99.90;;;;;;5050920;28;19954;-79
2022/06/06 14:14:47;;;;;;;;;;;20.60;99.90;;;;;;5068495;28;19933;-79
2022/06/06 14:17:15;;;;;;;;;;;20.60;99.90;;;;;;5049657;28;19928;-79
2022/06/06 14:19:54;;;;;;;;;;;20.70;99.90;;;;;;5065927;28;20657;-79
2022/06/06 14:22:28;;;;;;;;;;;20.70;99.90;;;;;;5045274;28;19944;-79
2022/06/06 14:24:56;;;;;;;;;;;20.70;99.90;;;;;;5065118;28;20326;-79
2022/06/06 14:27:23;;;;;;;;;;;20.80;99.90;;;;;;5063401;28;19932;-78
2022/06/06 14:29:56;;;;;;;;;;;20.80;99.90;;;;;;5068159;28;20349;-79
2022/06/06 14:32:24;;;;;;;;;;;20.80;99.90;;;;;;5069168;28;19982;-79
2022/06/06 14:34:53;;;;;;;;;;;20.90;99.90;;;;;;5069839;28;20430;-79
2022/06/06 14:37:21;;;;;;;;;;;20.90;99.90;;;;;;5048047;28;19956;-79
2022/06/06 14:39:49;;;;;;;;;;;20.90;99.90;;;;;;5071149;28;19931;-79
2022/06/06 14:42:17;;;;;;;;;;;20.90;99.90;;;;;;5074491;28;19954;-79
2022/06/06 14:44:47;;;;;;;;;;;20.90;99.90;;;;;;5069257;28;19932;-79
2022/06/06 14:47:20;;;;;;;;;;;20.90;99.90;;;;;;5053756;28;19929;-79
2022/06/06 14:50:45;;;;;;;;;;;21.00;99.90;;;;;;5071375;28;19925;-78
2022/06/06 14:52:38;;;;;;;;;;;21.00;99.90;;;;;;5069516;28;19932;-79
2022/06/06 14:55:07;;;;;;;;;;;21.00;99.90;;;;;;5071592;28;19928;-79
2022/06/06 14:57:34;;;;;;;;;;;21.00;99.90;;;;;;5070234;28;19932;-79
2022/06/06 15:00:04;;;;;;;;;;;21.00;99.90;;;;;;5071235;28;19936;-79
2022/06/06 15:02:31;;;;;;;;;;;21.10;99.90;;;;;;5071127;28;19925;-79
2022/06/06 15:05:13;;;;;;;;;;;21.10;99.90;;;;;;5049164;28;19960;-79
2022/06/06 15:07:45;;;;;;;;;;;21.20;99.90;;;;;;5070002;28;19929;-78
2022/06/06 15:10:18;;;;;;;;;;;21.20;99.90;;;;;;5064716;28;19924;-79
2022/06/06 15:12:45;;;;;;;;;;;21.20;99.90;;;;;;5072200;28;19925;-79
2022/06/06 15:15:15;;;;;;;;;;;21.20;99.90;;;;;;5050586;28;19971;-78
2022/06/06 15:17:45;;;;;;;;;;;21.20;99.90;;;;;;5071642;28;19963;-79
2022/06/06 15:20:19;;;;;;;;;;;21.20;99.90;;;;;;5066224;28;19924;-79
2022/06/06 15:22:49;;;;;;;;;;;21.30;99.90;;;;;;5072115;28;19939;-79